createdAt,value
2018-07-31T00:00:36.668Z,14.70
2018-07-31T00:03:05.345Z,12.83
2018-07-31T00:05:34.763Z,13.73
2018-07-31T00:08:03.423Z,13.33
2018-07-31T00:10:32.619Z,14.87
2018-07-31T00:13:01.208Z,19.30
2018-07-31T00:15:30.092Z,12.23
2018-07-31T00:17:58.934Z,13.20
2018-07-31T00:20:28.119Z,20.43
2018-07-31T00:22:56.760Z,18.00
2018-07-31T00:25:25.602Z,17.63
2018-07-31T00:27:54.715Z,13.73
2018-07-31T00:30:23.342Z,15.90
2018-07-31T00:32:51.936Z,16.07
2018-07-31T00:35:20.505Z,14.40
2018-07-31T00:37:49.349Z,16.30
2018-07-31T00:40:18.207Z,14.13
2018-07-31T00:42:46.855Z,16.90
2018-07-31T00:45:15.553Z,15.07
2018-07-31T00:47:44.483Z,17.20
2018-07-31T00:50:13.427Z,18.20
2018-07-31T00:52:42.015Z,12.90
2018-07-31T00:55:10.739Z,15.73
2018-07-31T00:57:39.286Z,14.77
2018-07-31T01:00:07.999Z,14.17
2018-07-31T01:02:36.647Z,16.90
2018-07-31T01:05:05.839Z,13.70
2018-07-31T01:07:34.537Z,13.83
2018-07-31T01:10:03.401Z,13.97
2018-07-31T01:12:32.016Z,14.80
2018-07-31T01:15:00.739Z,11.10
2018-07-31T01:17:30.417Z,14.20
2018-07-31T01:19:59.359Z,25.70
2018-07-31T01:22:27.983Z,16.70
2018-07-31T01:24:57.426Z,12.80
2018-07-31T01:27:26.199Z,15.13
2018-07-31T01:29:53.841Z,11.47
2018-07-31T01:32:22.780Z,21.60
2018-07-31T01:34:51.476Z,20.90
2018-07-31T01:37:20.115Z,25.90
2018-07-31T01:39:48.919Z,16.27
2018-07-31T01:42:17.797Z,13.43
2018-07-31T01:44:46.523Z,14.87
2018-07-31T01:47:15.748Z,14.00
2018-07-31T01:49:44.680Z,15.93
2018-07-31T01:52:13.771Z,16.00
2018-07-31T01:54:42.822Z,17.80
2018-07-31T01:57:11.427Z,14.00
2018-07-31T01:59:40.048Z,12.93
2018-07-31T02:02:09.332Z,16.50
2018-07-31T02:04:37.969Z,17.23
2018-07-31T02:07:06.584Z,12.80
2018-07-31T02:09:35.640Z,12.67
2018-07-31T02:12:04.383Z,13.40
2018-07-31T02:14:33.427Z,14.80
2018-07-31T02:17:02.083Z,13.00
2018-07-31T02:19:30.938Z,15.80
2018-07-31T02:21:59.651Z,16.07
2018-07-31T02:24:28.543Z,13.47
2018-07-31T02:26:57.095Z,13.70
2018-07-31T02:30:29.122Z,15.97
2018-07-31T02:32:58.780Z,19.20
2018-07-31T02:35:27.392Z,15.93
2018-07-31T02:37:55.943Z,21.90
2018-07-31T02:40:24.830Z,13.73
2018-07-31T02:42:53.619Z,13.30
2018-07-31T02:45:22.243Z,16.00
2018-07-31T02:47:50.891Z,14.17
2018-07-31T02:50:19.468Z,12.63
2018-07-31T02:52:48.075Z,14.23
2018-07-31T02:55:16.635Z,18.23
2018-07-31T02:57:45.219Z,15.67
2018-07-31T03:00:13.949Z,20.53
2018-07-31T03:02:42.497Z,15.90
2018-07-31T03:05:12.644Z,15.40
2018-07-31T03:07:41.841Z,17.60
2018-07-31T03:10:11.656Z,12.20
2018-07-31T03:12:40.316Z,14.57
2018-07-31T03:15:10.723Z,13.87
2018-07-31T03:17:39.315Z,16.43
2018-07-31T03:20:10.217Z,19.90
2018-07-31T03:22:38.864Z,17.00
2018-07-31T03:25:07.524Z,19.80
2018-07-31T03:27:36.131Z,16.73
2018-07-31T03:30:05.307Z,16.70
2018-07-31T03:32:33.991Z,17.97
2018-07-31T03:35:02.829Z,13.80
2018-07-31T03:37:31.595Z,17.17
2018-07-31T03:40:00.134Z,15.10
2018-07-31T03:42:28.764Z,13.97
2018-07-31T03:44:57.543Z,16.00
2018-07-31T03:47:26.116Z,20.10
2018-07-31T03:49:55.169Z,15.80
2018-07-31T03:52:23.804Z,14.47
2018-07-31T03:54:52.903Z,19.97
2018-07-31T03:57:22.022Z,19.23
2018-07-31T03:59:50.559Z,15.90
2018-07-31T04:02:19.491Z,17.10
2018-07-31T04:04:48.292Z,20.43
2018-07-31T04:07:16.828Z,17.20
2018-07-31T04:09:45.455Z,22.67
2018-07-31T04:12:14.532Z,24.07
2018-07-31T04:14:43.191Z,17.73
2018-07-31T04:17:12.019Z,14.70
2018-07-31T04:19:41.324Z,18.77
2018-07-31T04:22:10.055Z,15.20
2018-07-31T04:24:39.287Z,20.03
2018-07-31T04:27:07.940Z,16.83
2018-07-31T04:29:36.519Z,17.83
2018-07-31T04:32:05.178Z,17.13
2018-07-31T04:34:34.267Z,15.13
2018-07-31T04:37:03.111Z,15.63
2018-07-31T04:39:31.801Z,14.07
2018-07-31T04:42:00.617Z,14.57
2018-07-31T04:44:29.263Z,17.60
2018-07-31T04:46:57.852Z,16.00
2018-07-31T04:49:26.884Z,17.70
2018-07-31T04:51:55.411Z,18.40
2018-07-31T04:54:24.336Z,13.50
2018-07-31T04:56:53.337Z,18.03
2018-07-31T04:59:21.887Z,12.90
2018-07-31T05:01:50.605Z,18.53
2018-07-31T05:04:19.368Z,15.83
2018-07-31T05:06:48.399Z,16.87
2018-07-31T05:09:17.039Z,23.93
2018-07-31T05:11:45.665Z,21.07
2018-07-31T05:14:14.523Z,20.53
2018-07-31T05:16:43.205Z,21.43
2018-07-31T05:19:12.029Z,17.10
2018-07-31T05:21:41.284Z,16.93
2018-07-31T05:24:09.908Z,17.90
2018-07-31T05:26:38.603Z,19.27
2018-07-31T05:29:07.247Z,23.63
2018-07-31T05:31:35.767Z,13.33
2018-07-31T05:34:04.760Z,28.27
2018-07-31T05:36:33.700Z,19.17
2018-07-31T05:39:02.532Z,19.80
2018-07-31T05:41:31.534Z,13.90
2018-07-31T05:44:00.692Z,18.03
2018-07-31T05:46:29.285Z,15.97
2018-07-31T05:48:58.052Z,20.17
2018-07-31T05:51:26.661Z,16.73
2018-07-31T05:53:55.231Z,13.33
2018-07-31T05:56:24.056Z,15.50
2018-07-31T05:58:53.216Z,18.50
2018-07-31T06:01:22.085Z,14.03
2018-07-31T06:03:51.166Z,14.40
2018-07-31T06:06:19.982Z,14.63
2018-07-31T06:08:48.571Z,21.30
2018-07-31T06:11:17.755Z,17.50
2018-07-31T06:13:46.628Z,13.87
2018-07-31T06:16:15.172Z,20.40
2018-07-31T06:18:44.080Z,17.80
2018-07-31T06:21:12.721Z,17.10
2018-07-31T06:23:41.611Z,13.90
2018-07-31T06:26:10.693Z,12.53
2018-07-31T06:28:40.136Z,13.57
2018-07-31T06:31:09.216Z,19.43
2018-07-31T06:33:37.912Z,13.93
2018-07-31T06:36:06.599Z,13.37
2018-07-31T06:38:35.369Z,12.40
2018-07-31T06:41:04.203Z,13.20
2018-07-31T06:43:32.869Z,13.70
2018-07-31T06:46:01.479Z,18.83
2018-07-31T06:48:30.250Z,16.23
2018-07-31T06:50:58.899Z,11.03
2018-07-31T06:53:27.592Z,11.90
2018-07-31T06:55:56.627Z,11.93
2018-07-31T06:58:25.391Z,14.00
2018-07-31T07:00:53.981Z,9.63
2018-07-31T07:03:22.716Z,7.70
2018-07-31T07:05:51.249Z,9.80
2018-07-31T07:08:20.000Z,10.60
2018-07-31T07:10:48.836Z,14.23
2018-07-31T07:13:17.960Z,10.73
2018-07-31T07:15:46.570Z,18.90
2018-07-31T07:18:15.610Z,9.13
2018-07-31T07:20:44.343Z,10.87
2018-07-31T07:23:13.280Z,14.70
2018-07-31T07:25:42.487Z,10.80
2018-07-31T07:28:11.292Z,11.20
2018-07-31T07:30:40.014Z,16.73
2018-07-31T07:33:08.968Z,14.53
2018-07-31T07:35:37.592Z,10.17
2018-07-31T07:38:06.448Z,11.80
2018-07-31T07:40:35.320Z,9.20
2018-07-31T07:43:04.214Z,9.17
2018-07-31T07:45:32.952Z,11.47
2018-07-31T07:48:01.783Z,11.67
2018-07-31T07:50:30.484Z,15.57
2018-07-31T07:52:59.128Z,13.37
2018-07-31T07:55:28.152Z,10.20
2018-07-31T07:57:57.056Z,14.60
2018-07-31T08:00:25.674Z,17.13
2018-07-31T08:02:55.045Z,8.00
2018-07-31T08:05:23.670Z,10.43
2018-07-31T08:07:52.345Z,8.97
2018-07-31T08:10:21.100Z,13.17
2018-07-31T08:12:49.845Z,10.63
2018-07-31T08:15:18.416Z,13.93
2018-07-31T08:17:47.360Z,10.20
2018-07-31T08:20:16.264Z,10.87
2018-07-31T08:22:44.904Z,24.30
2018-07-31T08:25:13.940Z,24.37
2018-07-31T08:27:42.565Z,27.33
2018-07-31T08:30:11.200Z,15.37
2018-07-31T08:32:40.167Z,43.20
2018-07-31T08:35:08.965Z,23.80
2018-07-31T08:37:37.636Z,29.30
2018-07-31T08:40:06.383Z,21.40
2018-07-31T08:42:34.999Z,18.30
2018-07-31T08:45:03.721Z,13.90
2018-07-31T08:47:32.759Z,13.60
2018-07-31T08:50:01.509Z,27.10
2018-07-31T08:52:30.200Z,19.03
2018-07-31T08:54:59.068Z,11.07
2018-07-31T08:57:28.116Z,10.67
2018-07-31T08:59:56.848Z,9.27
2018-07-31T09:02:25.636Z,15.17
2018-07-31T09:04:54.484Z,14.33
2018-07-31T09:07:23.083Z,9.27
2018-07-31T09:09:52.004Z,6.50
2018-07-31T09:12:20.744Z,7.50
2018-07-31T09:14:49.417Z,9.27
2018-07-31T09:17:18.335Z,6.67
2018-07-31T09:19:46.904Z,11.73
2018-07-31T09:22:15.554Z,9.53
2018-07-31T09:24:44.434Z,17.77
2018-07-31T09:27:13.227Z,11.30
2018-07-31T09:29:41.843Z,9.60
2018-07-31T09:32:10.588Z,8.20
2018-07-31T09:34:44.463Z,11.93
2018-07-31T09:37:13.392Z,11.57
2018-07-31T09:39:42.031Z,11.80
2018-07-31T09:42:10.939Z,9.65
2018-07-31T09:44:40.024Z,8.58
2018-07-31T09:47:08.584Z,12.88
2018-07-31T09:49:37.295Z,12.40
2018-07-31T09:52:07.548Z,9.28
2018-07-31T09:54:36.353Z,11.43
2018-07-31T09:57:05.016Z,10.03
2018-07-31T09:59:33.943Z,9.05
2018-07-31T10:02:02.480Z,6.08
2018-07-31T10:04:31.348Z,8.03
2018-07-31T10:07:00.009Z,6.55
2018-07-31T10:09:28.612Z,5.40
2018-07-31T10:11:57.327Z,7.53
2018-07-31T10:14:26.348Z,6.17
2018-07-31T10:16:55.169Z,6.17
2018-07-31T10:19:23.760Z,5.30
2018-07-31T10:21:52.547Z,7.08
2018-07-31T10:24:21.769Z,7.17
2018-07-31T10:26:50.555Z,8.20
2018-07-31T10:29:19.348Z,12.40
2018-07-31T10:31:48.314Z,5.72
2018-07-31T10:34:17.306Z,5.08
2018-07-31T10:36:46.084Z,5.40
2018-07-31T10:39:14.787Z,7.17
2018-07-31T10:41:43.532Z,13.00
2018-07-31T10:44:12.820Z,7.35
2018-07-31T10:46:41.603Z,6.67
2018-07-31T10:49:10.344Z,10.82
2018-07-31T10:51:38.953Z,5.05
2018-07-31T10:54:07.775Z,11.48
2018-07-31T10:56:36.402Z,5.22
2018-07-31T10:59:05.029Z,8.20
2018-07-31T11:01:33.671Z,4.78
2018-07-31T11:04:02.437Z,9.43
2018-07-31T11:06:31.449Z,4.67
2018-07-31T11:09:00.104Z,6.53
2018-07-31T11:11:28.716Z,4.70
2018-07-31T11:13:57.459Z,5.90
2018-07-31T11:16:26.159Z,9.10
2018-07-31T11:18:55.147Z,11.95
2018-07-31T11:21:23.812Z,8.98
2018-07-31T11:23:52.515Z,7.90
2018-07-31T11:26:21.309Z,4.90
2018-07-31T11:28:50.027Z,6.97
2018-07-31T11:31:18.625Z,8.35
2018-07-31T11:33:47.360Z,9.28
2018-07-31T11:36:16.799Z,9.63
2018-07-31T11:38:45.536Z,6.47
2018-07-31T11:41:14.341Z,6.25
2018-07-31T11:43:43.098Z,32.10
2018-07-31T11:46:11.776Z,7.75
2018-07-31T11:48:40.463Z,5.78
2018-07-31T11:51:09.588Z,20.85
2018-07-31T11:53:38.220Z,6.90
2018-07-31T11:56:06.804Z,5.28
2018-07-31T11:58:35.649Z,7.50
2018-07-31T12:01:04.624Z,5.00
2018-07-31T12:03:33.276Z,4.47
2018-07-31T12:06:02.004Z,5.10
2018-07-31T12:08:33.316Z,7.87
2018-07-31T12:11:02.127Z,5.55
2018-07-31T12:13:30.824Z,4.70
2018-07-31T12:16:00.545Z,10.48
2018-07-31T12:18:29.571Z,8.13
2018-07-31T12:20:58.513Z,9.50
2018-07-31T12:23:27.164Z,15.40
2018-07-31T12:25:55.868Z,6.58
2018-07-31T12:28:24.429Z,4.30
2018-07-31T12:30:53.082Z,7.80
2018-07-31T12:33:21.724Z,4.30
2018-07-31T12:35:50.665Z,4.33
2018-07-31T12:38:19.463Z,36.75
2018-07-31T12:40:48.531Z,8.65
2018-07-31T12:43:17.267Z,9.38
2018-07-31T12:45:45.844Z,6.20
2018-07-31T12:48:14.845Z,8.70
2018-07-31T12:50:43.524Z,5.80
2018-07-31T12:53:12.228Z,4.30
2018-07-31T12:55:41.231Z,3.87
2018-07-31T12:58:10.024Z,4.62
2018-07-31T13:00:39.049Z,3.92
2018-07-31T13:03:07.925Z,4.37
2018-07-31T13:05:36.557Z,4.33
2018-07-31T13:08:05.212Z,4.05
2018-07-31T13:10:33.960Z,4.72
2018-07-31T13:13:02.722Z,6.62
2018-07-31T13:15:31.387Z,4.53
2018-07-31T13:18:00.088Z,6.25
2018-07-31T13:20:28.788Z,4.25
2018-07-31T13:22:58.489Z,6.35
2018-07-31T13:25:27.533Z,7.75
2018-07-31T13:27:56.245Z,4.05
2018-07-31T13:30:24.790Z,4.58
2018-07-31T13:32:53.688Z,7.80
2018-07-31T13:35:22.339Z,4.15
2018-07-31T13:37:51.091Z,4.58
2018-07-31T13:40:19.873Z,4.28
2018-07-31T13:42:48.628Z,4.70
2018-07-31T13:45:17.388Z,7.12
2018-07-31T13:47:46.124Z,9.93
2018-07-31T13:50:14.855Z,5.92
2018-07-31T13:52:43.569Z,4.28
2018-07-31T13:55:13.341Z,4.28
2018-07-31T13:57:42.667Z,5.53
2018-07-31T14:00:12.082Z,9.38
2018-07-31T14:02:41.156Z,5.37
2018-07-31T14:05:10.150Z,4.90
2018-07-31T14:07:38.913Z,4.80
2018-07-31T14:10:08.052Z,5.25
2018-07-31T14:12:36.966Z,4.80
2018-07-31T14:15:05.945Z,9.43
2018-07-31T14:17:35.568Z,5.10
2018-07-31T14:20:04.616Z,6.10
2018-07-31T14:22:33.591Z,4.58
2018-07-31T14:25:03.059Z,5.22
2018-07-31T14:27:32.470Z,4.37
2018-07-31T14:30:01.857Z,7.35
2018-07-31T14:32:31.733Z,4.97
2018-07-31T14:35:01.128Z,5.70
2018-07-31T14:37:30.113Z,8.03
2018-07-31T14:39:59.231Z,11.25
2018-07-31T14:42:29.102Z,6.15
2018-07-31T14:44:57.823Z,6.28
2018-07-31T14:47:27.033Z,7.35
2018-07-31T14:49:56.829Z,5.75
2018-07-31T14:52:26.046Z,4.95
2018-07-31T14:54:56.016Z,4.90
2018-07-31T14:57:24.635Z,4.97
2018-07-31T14:59:53.273Z,8.88
2018-07-31T15:02:22.913Z,4.67
2018-07-31T15:04:52.046Z,5.37
2018-07-31T15:07:21.527Z,5.72
2018-07-31T15:09:50.911Z,4.78
2018-07-31T15:12:20.016Z,5.10
2018-07-31T15:14:49.116Z,8.00
2018-07-31T15:17:17.723Z,12.20
2018-07-31T15:19:46.552Z,5.78
2018-07-31T15:22:15.639Z,4.87
2018-07-31T15:24:45.181Z,7.47
2018-07-31T15:27:14.201Z,5.25
2018-07-31T15:29:43.325Z,7.55
2018-07-31T15:32:12.842Z,5.30
2018-07-31T15:34:42.132Z,6.03
2018-07-31T15:37:11.058Z,5.47
2018-07-31T15:39:40.261Z,7.03
2018-07-31T15:42:09.018Z,5.67
2018-07-31T15:44:38.063Z,8.80
2018-07-31T15:47:07.460Z,6.90
2018-07-31T15:49:36.839Z,12.50
2018-07-31T15:52:06.228Z,8.93
2018-07-31T15:54:35.099Z,6.50
2018-07-31T15:57:04.178Z,10.80
2018-07-31T15:59:32.922Z,7.17
2018-07-31T16:02:02.408Z,6.13
2018-07-31T16:04:31.384Z,7.17
2018-07-31T16:07:00.202Z,9.63
2018-07-31T16:09:29.048Z,8.40
2018-07-31T16:11:57.989Z,9.30
2018-07-31T16:14:26.592Z,7.30
2018-07-31T16:16:56.440Z,6.13
2018-07-31T16:19:25.099Z,10.90
2018-07-31T16:21:53.935Z,10.27
2018-07-31T16:24:22.769Z,7.60
2018-07-31T16:26:51.352Z,8.03
2018-07-31T16:29:19.944Z,8.33
2018-07-31T16:31:49.075Z,7.50
2018-07-31T16:34:17.717Z,9.53
2018-07-31T16:36:46.503Z,9.03
2018-07-31T16:39:15.855Z,8.13
2018-07-31T16:41:45.177Z,15.03
2018-07-31T16:44:14.646Z,7.83
2018-07-31T16:46:43.969Z,13.10
2018-07-31T16:49:13.367Z,8.93
2018-07-31T16:51:43.065Z,7.70
2018-07-31T16:54:11.791Z,8.27
2018-07-31T16:56:40.495Z,7.87
2018-07-31T16:59:09.329Z,10.67
2018-07-31T17:01:38.092Z,9.43
2018-07-31T17:04:07.147Z,12.47
2018-07-31T17:06:36.231Z,7.73
2018-07-31T17:09:07.501Z,11.60
2018-07-31T17:11:37.400Z,11.67
2018-07-31T17:14:06.396Z,7.43
2018-07-31T17:16:35.175Z,14.73
2018-07-31T17:19:03.941Z,14.30
2018-07-31T17:21:32.819Z,8.07
2018-07-31T17:24:01.532Z,8.63
2018-07-31T17:26:30.400Z,9.30
2018-07-31T17:28:59.793Z,10.77
2018-07-31T17:31:28.650Z,10.60
2018-07-31T17:33:57.583Z,8.90
2018-07-31T17:36:26.680Z,8.43
2018-07-31T17:38:56.124Z,8.37
2018-07-31T17:41:24.932Z,8.80
2018-07-31T17:43:53.640Z,14.77
2018-07-31T17:46:22.482Z,17.53
2018-07-31T17:48:51.460Z,11.23
2018-07-31T17:51:20.149Z,12.80
2018-07-31T17:53:49.396Z,11.63
2018-07-31T17:56:19.075Z,12.40
2018-07-31T17:58:48.469Z,10.80
2018-07-31T18:01:18.118Z,6.93
2018-07-31T18:03:47.302Z,8.27
2018-07-31T18:06:16.631Z,9.00
2018-07-31T18:08:45.836Z,8.47
2018-07-31T18:11:14.950Z,11.50
2018-07-31T18:13:43.784Z,7.30
2018-07-31T18:16:13.229Z,7.40
2018-07-31T18:18:43.978Z,9.73
2018-07-31T18:21:12.800Z,8.80
2018-07-31T18:23:42.218Z,11.13
2018-07-31T18:26:11.449Z,10.33
2018-07-31T18:28:41.301Z,8.93
2018-07-31T18:31:10.800Z,14.13
2018-07-31T18:33:40.389Z,8.27
2018-07-31T18:36:10.070Z,17.83
2018-07-31T18:38:39.283Z,9.30
2018-07-31T18:41:08.232Z,10.33
2018-07-31T18:43:36.892Z,9.53
2018-07-31T18:46:05.799Z,14.00
2018-07-31T18:48:34.629Z,8.80
2018-07-31T18:51:04.149Z,10.07
2018-07-31T18:53:33.159Z,9.00
2018-07-31T18:56:01.959Z,8.87
2018-07-31T18:58:36.385Z,10.67
2018-07-31T19:01:08.768Z,12.03
2018-07-31T19:03:38.014Z,12.60
2018-07-31T19:06:08.172Z,10.20
2018-07-31T19:08:38.200Z,12.77
2018-07-31T19:11:06.818Z,11.20
2018-07-31T19:13:35.633Z,23.60
2018-07-31T19:16:04.532Z,12.80
2018-07-31T19:18:33.243Z,9.47
2018-07-31T19:21:07.331Z,12.57
2018-07-31T19:23:35.969Z,12.90
2018-07-31T19:26:04.891Z,12.30
2018-07-31T19:28:34.030Z,16.00
2018-07-31T19:31:02.967Z,7.97
2018-07-31T19:33:32.683Z,7.77
2018-07-31T19:36:01.813Z,13.60
2018-07-31T19:38:30.543Z,10.07
2018-07-31T19:40:59.201Z,6.37
2018-07-31T19:43:28.671Z,9.80
2018-07-31T19:45:57.556Z,15.70
2018-07-31T19:48:26.224Z,20.20
2018-07-31T19:50:55.542Z,11.10
2018-07-31T19:53:24.359Z,22.90
2018-07-31T19:55:53.144Z,18.40
2018-07-31T19:58:21.981Z,11.80
2018-07-31T20:00:51.040Z,17.47
2018-07-31T20:03:19.783Z,18.03
2018-07-31T20:05:48.787Z,17.53
2018-07-31T20:08:17.824Z,23.60
2018-07-31T20:10:46.732Z,9.83
2018-07-31T20:13:15.552Z,8.57
2018-07-31T20:15:44.251Z,7.13
2018-07-31T20:18:13.216Z,6.37
2018-07-31T20:20:41.941Z,9.43
2018-07-31T20:23:10.572Z,10.77
2018-07-31T20:25:39.624Z,10.50
2018-07-31T20:28:08.346Z,8.47
2018-07-31T20:30:37.370Z,13.17
2018-07-31T20:33:06.040Z,7.23
2018-07-31T20:35:34.665Z,7.50
2018-07-31T20:38:03.423Z,6.60
2018-07-31T20:40:32.057Z,7.87
2018-07-31T20:43:00.692Z,7.47
2018-07-31T20:45:29.900Z,10.40
2018-07-31T20:47:59.330Z,9.47
2018-07-31T20:50:28.308Z,10.33
2018-07-31T20:52:57.294Z,9.80
2018-07-31T20:55:26.074Z,9.60
2018-07-31T20:57:54.798Z,10.53
2018-07-31T21:00:23.475Z,14.70
2018-07-31T21:02:52.828Z,11.43
2018-07-31T21:05:22.569Z,16.67
2018-07-31T21:07:51.441Z,8.97
2018-07-31T21:10:20.125Z,12.30
2018-07-31T21:12:48.955Z,15.07
2018-07-31T21:15:17.644Z,12.30
2018-07-31T21:17:52.654Z,13.30
2018-07-31T21:20:21.652Z,12.43
2018-07-31T21:22:50.412Z,9.27
2018-07-31T21:25:19.373Z,13.20
2018-07-31T21:27:48.357Z,9.83
2018-07-31T21:30:16.992Z,9.17
2018-07-31T21:32:46.909Z,8.27
2018-07-31T21:35:16.670Z,9.77
2018-07-31T21:37:46.110Z,18.53
2018-07-31T21:40:15.512Z,23.90
2018-07-31T21:42:44.476Z,9.83
2018-07-31T21:45:13.569Z,14.40
2018-07-31T21:47:42.209Z,10.87
2018-07-31T21:50:10.895Z,12.50
2018-07-31T21:52:39.555Z,8.80
2018-07-31T21:55:08.191Z,13.57
2018-07-31T21:57:36.825Z,9.47
2018-07-31T22:00:08.493Z,11.10
2018-07-31T22:02:37.938Z,10.67
2018-07-31T22:05:06.779Z,11.83
2018-07-31T22:07:35.803Z,13.10
2018-07-31T22:10:04.716Z,10.07
2018-07-31T22:12:33.344Z,12.43
2018-07-31T22:15:02.368Z,15.77
2018-07-31T22:17:31.016Z,12.67
2018-07-31T22:19:59.767Z,20.30
2018-07-31T22:22:28.548Z,28.53
2018-07-31T22:24:57.625Z,18.00
2018-07-31T22:27:26.184Z,15.83
2018-07-31T22:29:54.784Z,15.23
2018-07-31T22:32:23.776Z,13.43
2018-07-31T22:34:52.561Z,20.77
2018-07-31T22:37:22.155Z,18.23
2018-07-31T22:39:51.010Z,14.50
2018-07-31T22:42:20.290Z,16.13
2018-07-31T22:44:49.556Z,17.30
2018-07-31T22:47:18.532Z,15.57
2018-07-31T22:49:47.700Z,17.50
2018-07-31T22:52:16.675Z,14.97
2018-07-31T22:54:45.824Z,15.50
2018-07-31T22:57:14.890Z,14.80
2018-07-31T22:59:43.800Z,15.20
2018-07-31T23:02:12.588Z,13.27
2018-07-31T23:04:41.430Z,13.80
2018-07-31T23:07:10.144Z,15.60
2018-07-31T23:09:38.797Z,14.03
2018-07-31T23:12:08.343Z,14.07
2018-07-31T23:14:37.016Z,14.67
2018-07-31T23:17:05.887Z,13.00
2018-07-31T23:19:34.648Z,12.17
2018-07-31T23:22:03.549Z,16.57
2018-07-31T23:24:32.212Z,15.20
2018-07-31T23:27:01.194Z,14.73
2018-07-31T23:29:30.340Z,16.90
2018-07-31T23:31:59.113Z,15.00
2018-07-31T23:34:28.146Z,11.30
2018-07-31T23:36:56.755Z,13.63
2018-07-31T23:39:25.648Z,15.27
2018-07-31T23:41:54.267Z,9.00
2018-07-31T23:44:23.982Z,13.53
2018-07-31T23:46:52.740Z,12.53
2018-07-31T23:49:22.011Z,10.63
2018-07-31T23:51:50.875Z,14.43
2018-07-31T23:54:19.648Z,13.47
2018-07-31T23:56:48.618Z,22.57
2018-07-31T23:59:17.836Z,14.60
